WZZ2419 LTFM-LHBP
Flight info
| Callsign | WZZ2419 |
|---|---|
| Flight time | 1h 27m |
| Altitude | 36000 |
| Route | TUDBU Q26 ETUBA DCT DEGET DCT KEZAL |
| Aircraft | A21N/M-SDE2E3FGHIRWXY/LB1 |
Departure
| Time | 2026-05-07 08:24 |
|---|---|
| Airport | İstanbul Airport (LTFM) |
Arrival
| Time | 2026-05-07 09:51 |
|---|---|
| Airport | Budapest Liszt Ferenc International Airport (LHBP) |
| Time | Latitude | Longitude | Altitude | Speed | Heading |
|---|---|---|---|---|---|
| 2026-05-07 07:50 | 41.25975 | 28.73567 | 336 ft | 0 kts | 107° |
| 2026-05-07 08:14 | 41.25981 | 28.73538 | 334 ft | 4 kts | 103° |
| 2026-05-07 08:14 | 41.25986 | 28.73503 | 336 ft | 4 kts | 95° |
| 2026-05-07 08:15 | 41.25985 | 28.73467 | 336 ft | 4 kts | 75° |
| 2026-05-07 08:15 | 41.25974 | 28.73442 | 334 ft | 3 kts | 22° |
| 2026-05-07 08:15 | 41.25971 | 28.73440 | 334 ft | 0 kts | 17° |
| 2026-05-07 08:18 | 41.25974 | 28.73441 | 334 ft | 2 kts | 17° |
| 2026-05-07 08:18 | 41.25980 | 28.73444 | 334 ft | 0 kts | 18° |
| 2026-05-07 08:18 | 41.25981 | 28.73444 | 336 ft | 1 kts | 18° |
| 2026-05-07 08:19 | 41.26005 | 28.73455 | 335 ft | 6 kts | 18° |
| 2026-05-07 08:19 | 41.26056 | 28.73476 | 339 ft | 10 kts | 17° |
| 2026-05-07 08:19 | 41.26133 | 28.73506 | 339 ft | 13 kts | 17° |
| 2026-05-07 08:19 | 41.26213 | 28.73484 | 338 ft | 13 kts | 300° |
| 2026-05-07 08:20 | 41.26220 | 28.73357 | 338 ft | 15 kts | 269° |
| 2026-05-07 08:20 | 41.26218 | 28.73208 | 336 ft | 17 kts | 269° |
| 2026-05-07 08:20 | 41.26216 | 28.73048 | 339 ft | 17 kts | 269° |
| 2026-05-07 08:20 | 41.26215 | 28.72975 | 339 ft | 0 kts | 270° |
| 2026-05-07 08:22 | 41.26215 | 28.72970 | 339 ft | 2 kts | 270° |
| 2026-05-07 08:22 | 41.26215 | 28.72930 | 336 ft | 7 kts | 269° |
| 2026-05-07 08:22 | 41.26214 | 28.72847 | 339 ft | 11 kts | 269° |
| 2026-05-07 08:22 | 41.26213 | 28.72730 | 339 ft | 14 kts | 268° |
| 2026-05-07 08:23 | 41.26210 | 28.72596 | 339 ft | 12 kts | 269° |
| 2026-05-07 08:23 | 41.26251 | 28.72526 | 338 ft | 11 kts | 359° |
| 2026-05-07 08:23 | 41.26328 | 28.72522 | 336 ft | 13 kts | 359° |
| 2026-05-07 08:23 | 41.26551 | 28.72518 | 338 ft | 67 kts | 359° |
| 2026-05-07 08:24 | 41.27303 | 28.72500 | 339 ft | 143 kts | 359° |
| 2026-05-07 08:24 | 41.28436 | 28.72466 | 550 ft | 173 kts | 358° |
| 2026-05-07 08:24 | 41.29632 | 28.72456 | 1308 ft | 172 kts | 359° |
| 2026-05-07 08:24 | 41.30828 | 28.72464 | 2087 ft | 174 kts | 359° |
| 2026-05-07 08:25 | 41.32093 | 28.72472 | 2716 ft | 189 kts | 358° |
| 2026-05-07 08:25 | 41.33469 | 28.72486 | 3381 ft | 207 kts | 357° |
| 2026-05-07 08:25 | 41.34926 | 28.72046 | 3804 ft | 229 kts | 326° |
| 2026-05-07 08:25 | 41.36129 | 28.70505 | 4313 ft | 250 kts | 308° |
| 2026-05-07 08:26 | 41.38402 | 28.66857 | 6125 ft | 260 kts | 309° |
| 2026-05-07 08:26 | 41.39590 | 28.64993 | 7127 ft | 262 kts | 310° |
| 2026-05-07 08:26 | 41.40795 | 28.63138 | 8042 ft | 266 kts | 311° |
| 2026-05-07 08:27 | 41.42020 | 28.61274 | 8940 ft | 270 kts | 312° |
| 2026-05-07 08:27 | 41.43259 | 28.59405 | 9811 ft | 274 kts | 312° |
| 2026-05-07 08:27 | 41.44543 | 28.57469 | 10424 ft | 288 kts | 313° |
| 2026-05-07 08:27 | 41.45925 | 28.55385 | 10755 ft | 310 kts | 313° |
| 2026-05-07 08:28 | 41.47404 | 28.53151 | 11126 ft | 330 kts | 313° |
| 2026-05-07 08:28 | 41.48939 | 28.50827 | 11760 ft | 338 kts | 313° |
| 2026-05-07 08:28 | 41.50505 | 28.48456 | 12538 ft | 343 kts | 313° |
| 2026-05-07 08:28 | 41.52091 | 28.46053 | 13325 ft | 348 kts | 313° |
| 2026-05-07 08:29 | 41.53703 | 28.43607 | 14106 ft | 352 kts | 313° |
| 2026-05-07 08:29 | 41.55325 | 28.41145 | 14845 ft | 355 kts | 313° |
| 2026-05-07 08:29 | 41.56967 | 28.38651 | 15614 ft | 358 kts | 313° |
| 2026-05-07 08:29 | 41.58616 | 28.36142 | 16378 ft | 361 kts | 313° |
| 2026-05-07 08:30 | 41.60270 | 28.33620 | 17127 ft | 363 kts | 313° |
| 2026-05-07 08:30 | 41.61927 | 28.31099 | 17861 ft | 366 kts | 313° |
| 2026-05-07 08:30 | 41.63616 | 28.28526 | 18583 ft | 369 kts | 313° |
| 2026-05-07 08:30 | 41.65319 | 28.25931 | 19227 ft | 371 kts | 313° |
| 2026-05-07 08:31 | 41.67027 | 28.23319 | 19868 ft | 374 kts | 313° |
| 2026-05-07 08:31 | 41.68745 | 28.20695 | 20526 ft | 376 kts | 313° |
| 2026-05-07 08:31 | 41.70469 | 28.18060 | 21142 ft | 379 kts | 313° |
| 2026-05-07 08:31 | 41.72211 | 28.15393 | 21765 ft | 381 kts | 312° |
| 2026-05-07 08:32 | 41.73958 | 28.12706 | 22387 ft | 383 kts | 312° |
| 2026-05-07 08:32 | 41.75709 | 28.09993 | 23003 ft | 385 kts | 312° |
| 2026-05-07 08:32 | 41.77463 | 28.07268 | 23596 ft | 387 kts | 312° |
| 2026-05-07 08:32 | 41.79239 | 28.04536 | 24122 ft | 390 kts | 312° |
| 2026-05-07 08:33 | 41.81026 | 28.01803 | 24598 ft | 392 kts | 312° |
| 2026-05-07 08:33 | 41.82833 | 27.99039 | 25089 ft | 394 kts | 312° |
| 2026-05-07 08:33 | 41.84636 | 27.96269 | 25559 ft | 396 kts | 312° |
| 2026-05-07 08:33 | 41.86449 | 27.93476 | 26022 ft | 398 kts | 312° |
| 2026-05-07 08:34 | 41.88273 | 27.90665 | 26473 ft | 400 kts | 312° |
| 2026-05-07 08:34 | 41.90105 | 27.87843 | 26925 ft | 402 kts | 312° |
| 2026-05-07 08:34 | 41.91930 | 27.85026 | 27365 ft | 404 kts | 311° |
| 2026-05-07 08:34 | 41.93772 | 27.82172 | 27801 ft | 407 kts | 311° |
| 2026-05-07 08:35 | 41.95628 | 27.79289 | 28239 ft | 409 kts | 311° |
| 2026-05-07 08:35 | 41.97584 | 27.76512 | 28661 ft | 410 kts | 316° |
| 2026-05-07 08:35 | 41.99660 | 27.73851 | 29080 ft | 413 kts | 317° |
| 2026-05-07 08:35 | 42.01752 | 27.71195 | 29485 ft | 415 kts | 317° |
| 2026-05-07 08:36 | 42.03845 | 27.68528 | 29878 ft | 417 kts | 316° |
| 2026-05-07 08:36 | 42.05957 | 27.65835 | 30319 ft | 417 kts | 316° |
| 2026-05-07 08:36 | 42.08060 | 27.63151 | 30759 ft | 415 kts | 316° |
| 2026-05-07 08:36 | 42.10144 | 27.60484 | 31179 ft | 414 kts | 316° |
| 2026-05-07 08:37 | 42.12233 | 27.57810 | 31556 ft | 413 kts | 316° |
| 2026-05-07 08:37 | 42.14313 | 27.55142 | 31914 ft | 413 kts | 316° |
| 2026-05-07 08:37 | 42.16397 | 27.52467 | 32273 ft | 413 kts | 316° |
| 2026-05-07 08:37 | 42.18448 | 27.49832 | 32636 ft | 412 kts | 316° |
| 2026-05-07 08:38 | 42.20516 | 27.47168 | 33001 ft | 411 kts | 316° |
| 2026-05-07 08:38 | 42.22585 | 27.44504 | 33363 ft | 410 kts | 316° |
| 2026-05-07 08:38 | 42.24646 | 27.41849 | 33703 ft | 410 kts | 316° |
| 2026-05-07 08:38 | 42.26704 | 27.39194 | 34031 ft | 409 kts | 316° |
| 2026-05-07 08:39 | 42.28764 | 27.36536 | 34302 ft | 409 kts | 316° |
| 2026-05-07 08:39 | 42.30819 | 27.33882 | 34561 ft | 409 kts | 316° |
| 2026-05-07 08:39 | 42.32872 | 27.31227 | 34845 ft | 408 kts | 316° |
| 2026-05-07 08:39 | 42.34917 | 27.28578 | 35116 ft | 407 kts | 316° |
| 2026-05-07 08:40 | 42.36960 | 27.25929 | 35380 ft | 406 kts | 316° |
| 2026-05-07 08:40 | 42.38994 | 27.23271 | 35633 ft | 406 kts | 316° |
| 2026-05-07 08:40 | 42.41030 | 27.20621 | 35869 ft | 405 kts | 316° |
| 2026-05-07 08:40 | 42.43059 | 27.17981 | 36098 ft | 405 kts | 315° |
| 2026-05-07 08:41 | 42.47130 | 27.12690 | 36167 ft | 406 kts | 315° |
| 2026-05-07 08:41 | 42.51210 | 27.07383 | 36142 ft | 406 kts | 315° |
| 2026-05-07 08:42 | 42.55246 | 27.02110 | 36141 ft | 405 kts | 315° |
| 2026-05-07 08:42 | 42.59305 | 26.96801 | 36135 ft | 405 kts | 315° |
| 2026-05-07 08:43 | 42.63362 | 26.91479 | 36134 ft | 405 kts | 315° |
| 2026-05-07 08:43 | 42.67417 | 26.86151 | 36129 ft | 405 kts | 315° |
| 2026-05-07 08:44 | 42.71471 | 26.80812 | 36129 ft | 405 kts | 315° |
| 2026-05-07 08:44 | 42.75517 | 26.75473 | 36121 ft | 405 kts | 315° |
| 2026-05-07 08:45 | 42.79559 | 26.70131 | 36114 ft | 405 kts | 315° |
| 2026-05-07 08:45 | 42.83601 | 26.64769 | 36108 ft | 405 kts | 315° |
| 2026-05-07 08:46 | 42.87634 | 26.59407 | 36106 ft | 405 kts | 315° |
| 2026-05-07 08:46 | 42.91676 | 26.54049 | 36102 ft | 405 kts | 315° |
| 2026-05-07 08:47 | 42.95685 | 26.48711 | 36099 ft | 405 kts | 314° |
| 2026-05-07 08:47 | 42.99714 | 26.43323 | 36088 ft | 406 kts | 314° |
| 2026-05-07 08:48 | 43.03729 | 26.37903 | 36086 ft | 406 kts | 314° |
| 2026-05-07 08:48 | 43.07771 | 26.32510 | 36079 ft | 406 kts | 315° |
| 2026-05-07 08:49 | 43.11820 | 26.27112 | 36074 ft | 406 kts | 314° |
| 2026-05-07 08:49 | 43.15859 | 26.21687 | 36062 ft | 406 kts | 314° |
| 2026-05-07 08:50 | 43.19886 | 26.16261 | 36063 ft | 407 kts | 314° |
| 2026-05-07 08:50 | 43.23915 | 26.10821 | 36055 ft | 407 kts | 314° |
| 2026-05-07 08:51 | 43.27951 | 26.05365 | 36058 ft | 407 kts | 314° |
| 2026-05-07 08:51 | 43.31963 | 25.99922 | 36061 ft | 408 kts | 314° |
| 2026-05-07 08:52 | 43.36000 | 25.94440 | 36052 ft | 408 kts | 314° |
| 2026-05-07 08:52 | 43.40042 | 25.88941 | 36052 ft | 409 kts | 314° |
| 2026-05-07 08:53 | 43.44080 | 25.83430 | 36052 ft | 409 kts | 314° |
| 2026-05-07 08:53 | 43.48122 | 25.77908 | 36047 ft | 409 kts | 314° |
| 2026-05-07 08:54 | 43.52158 | 25.72369 | 36049 ft | 409 kts | 313° |
| 2026-05-07 08:54 | 43.56201 | 25.66821 | 36051 ft | 410 kts | 313° |
| 2026-05-07 08:55 | 43.60247 | 25.61270 | 36053 ft | 410 kts | 313° |
| 2026-05-07 08:55 | 43.64264 | 25.55739 | 36051 ft | 411 kts | 313° |
| 2026-05-07 08:56 | 43.68313 | 25.50154 | 36053 ft | 411 kts | 313° |
| 2026-05-07 08:56 | 43.72349 | 25.44556 | 36058 ft | 411 kts | 313° |
| 2026-05-07 08:57 | 43.76392 | 25.38962 | 36055 ft | 411 kts | 313° |
| 2026-05-07 08:57 | 43.80430 | 25.33356 | 36057 ft | 411 kts | 313° |
| 2026-05-07 08:58 | 43.84471 | 25.27739 | 36061 ft | 412 kts | 313° |
| 2026-05-07 08:58 | 43.88509 | 25.22111 | 36061 ft | 412 kts | 313° |
| 2026-05-07 08:59 | 43.92548 | 25.16464 | 36061 ft | 412 kts | 313° |
| 2026-05-07 08:59 | 43.96560 | 25.10839 | 36061 ft | 412 kts | 313° |
| 2026-05-07 09:00 | 44.00593 | 25.05175 | 36056 ft | 413 kts | 313° |
| 2026-05-07 09:00 | 44.04627 | 24.99499 | 36065 ft | 413 kts | 312° |
| 2026-05-07 09:01 | 44.08671 | 24.93819 | 36072 ft | 413 kts | 312° |
| 2026-05-07 09:01 | 44.12709 | 24.88122 | 36069 ft | 414 kts | 312° |
| 2026-05-07 09:02 | 44.16740 | 24.82410 | 36069 ft | 414 kts | 312° |
| 2026-05-07 09:02 | 44.20782 | 24.76691 | 36071 ft | 414 kts | 312° |
| 2026-05-07 09:03 | 44.24143 | 24.71922 | 36068 ft | 414 kts | 312° |
| 2026-05-07 09:03 | 44.28183 | 24.66170 | 36071 ft | 415 kts | 312° |
| 2026-05-07 09:04 | 44.32221 | 24.60413 | 36075 ft | 416 kts | 312° |
| 2026-05-07 09:04 | 44.36272 | 24.54626 | 36069 ft | 416 kts | 312° |
| 2026-05-07 09:05 | 44.40321 | 24.48832 | 36068 ft | 417 kts | 312° |
| 2026-05-07 09:05 | 44.44354 | 24.43001 | 36072 ft | 416 kts | 310° |
| 2026-05-07 09:06 | 44.48287 | 24.37045 | 36074 ft | 417 kts | 311° |
| 2026-05-07 09:06 | 44.52402 | 24.31278 | 36072 ft | 418 kts | 313° |
| 2026-05-07 09:07 | 44.56494 | 24.25558 | 36074 ft | 418 kts | 312° |
| 2026-05-07 09:07 | 44.60557 | 24.19714 | 36074 ft | 418 kts | 311° |
| 2026-05-07 09:08 | 44.64606 | 24.13850 | 36078 ft | 418 kts | 311° |
| 2026-05-07 09:08 | 44.68658 | 24.07968 | 36069 ft | 419 kts | 311° |
| 2026-05-07 09:09 | 44.72712 | 24.02074 | 36077 ft | 419 kts | 311° |
| 2026-05-07 09:09 | 44.76757 | 23.96176 | 36075 ft | 419 kts | 311° |
| 2026-05-07 09:10 | 44.80803 | 23.90264 | 36078 ft | 419 kts | 311° |
| 2026-05-07 09:10 | 44.84849 | 23.84339 | 36083 ft | 419 kts | 311° |
| 2026-05-07 09:11 | 44.88894 | 23.78403 | 36079 ft | 420 kts | 311° |
| 2026-05-07 09:11 | 44.92915 | 23.72488 | 36082 ft | 420 kts | 311° |
| 2026-05-07 09:12 | 44.96964 | 23.66521 | 36084 ft | 420 kts | 311° |
| 2026-05-07 09:12 | 45.01007 | 23.60549 | 36085 ft | 421 kts | 310° |
| 2026-05-07 09:13 | 45.05057 | 23.54555 | 36092 ft | 421 kts | 310° |
| 2026-05-07 09:13 | 45.09088 | 23.48557 | 36095 ft | 421 kts | 310° |
| 2026-05-07 09:14 | 45.13073 | 23.42538 | 36092 ft | 422 kts | 310° |
| 2026-05-07 09:14 | 45.17115 | 23.36502 | 36092 ft | 422 kts | 310° |
| 2026-05-07 09:15 | 45.21159 | 23.30450 | 36092 ft | 423 kts | 310° |
| 2026-05-07 09:15 | 45.25205 | 23.24388 | 36077 ft | 424 kts | 310° |
| 2026-05-07 09:16 | 45.29260 | 23.18308 | 36094 ft | 423 kts | 310° |
| 2026-05-07 09:16 | 45.33305 | 23.12215 | 36079 ft | 424 kts | 310° |
| 2026-05-07 09:17 | 45.37351 | 23.06122 | 36083 ft | 423 kts | 310° |
| 2026-05-07 09:17 | 45.41371 | 23.00050 | 36077 ft | 423 kts | 310° |
| 2026-05-07 09:18 | 45.45402 | 22.93943 | 36064 ft | 423 kts | 310° |
| 2026-05-07 09:18 | 45.49432 | 22.87824 | 36067 ft | 423 kts | 309° |
| 2026-05-07 09:19 | 45.53461 | 22.81694 | 36059 ft | 423 kts | 309° |
| 2026-05-07 09:19 | 45.57491 | 22.75546 | 36067 ft | 424 kts | 309° |
| 2026-05-07 09:20 | 45.61488 | 22.69436 | 36069 ft | 424 kts | 309° |
| 2026-05-07 09:20 | 45.65514 | 22.63269 | 36070 ft | 424 kts | 309° |
| 2026-05-07 09:21 | 45.69535 | 22.57093 | 36057 ft | 424 kts | 309° |
| 2026-05-07 09:21 | 45.73562 | 22.50902 | 36064 ft | 425 kts | 310° |
| 2026-05-07 09:22 | 45.77648 | 22.44778 | 36056 ft | 422 kts | 303° |
| 2026-05-07 09:22 | 45.81168 | 22.38050 | 36053 ft | 423 kts | 306° |
| 2026-05-07 09:23 | 45.85061 | 22.31675 | 36059 ft | 425 kts | 308° |
| 2026-05-07 09:23 | 45.89127 | 22.25569 | 36059 ft | 428 kts | 314° |
| 2026-05-07 09:24 | 45.93491 | 22.19782 | 36060 ft | 426 kts | 311° |
| 2026-05-07 09:24 | 45.97564 | 22.13592 | 36055 ft | 424 kts | 305° |
| 2026-05-07 09:25 | 46.01494 | 22.07249 | 36062 ft | 426 kts | 310° |
| 2026-05-07 09:25 | 46.05748 | 22.01260 | 36062 ft | 426 kts | 309° |
| 2026-05-07 09:26 | 46.09644 | 21.94864 | 36052 ft | 425 kts | 307° |
| 2026-05-07 09:26 | 46.13589 | 21.88519 | 36054 ft | 426 kts | 308° |
| 2026-05-07 09:27 | 46.17553 | 21.82240 | 36060 ft | 426 kts | 308° |
| 2026-05-07 09:28 | 46.23544 | 21.72776 | 36056 ft | 426 kts | 308° |
| 2026-05-07 09:28 | 46.27539 | 21.66433 | 36049 ft | 426 kts | 308° |
| 2026-05-07 09:29 | 46.31516 | 21.60097 | 36047 ft | 426 kts | 308° |
| 2026-05-07 09:29 | 46.35502 | 21.53739 | 36048 ft | 426 kts | 308° |
| 2026-05-07 09:30 | 46.39492 | 21.47369 | 36040 ft | 426 kts | 307° |
| 2026-05-07 09:30 | 46.43465 | 21.41000 | 36040 ft | 427 kts | 307° |
| 2026-05-07 09:31 | 46.47430 | 21.34638 | 36040 ft | 427 kts | 307° |
| 2026-05-07 09:31 | 46.51404 | 21.28241 | 36039 ft | 426 kts | 307° |
| 2026-05-07 09:32 | 46.55377 | 21.21826 | 36036 ft | 427 kts | 307° |
| 2026-05-07 09:32 | 46.59349 | 21.15402 | 36033 ft | 427 kts | 307° |
| 2026-05-07 09:33 | 46.63289 | 21.09006 | 36030 ft | 427 kts | 307° |
| 2026-05-07 09:33 | 46.67257 | 21.02562 | 36027 ft | 427 kts | 307° |
| 2026-05-07 09:34 | 46.71223 | 20.96103 | 36030 ft | 427 kts | 307° |
| 2026-05-07 09:34 | 46.75191 | 20.89625 | 36023 ft | 427 kts | 306° |
| 2026-05-07 09:34 | 46.77161 | 20.86400 | 35663 ft | 424 kts | 306° |
| 2026-05-07 09:35 | 46.79025 | 20.83104 | 34811 ft | 416 kts | 298° |
| 2026-05-07 09:35 | 46.80502 | 20.79496 | 33640 ft | 415 kts | 294° |
| 2026-05-07 09:35 | 46.81872 | 20.75845 | 32385 ft | 416 kts | 293° |
| 2026-05-07 09:35 | 46.83266 | 20.72130 | 31201 ft | 417 kts | 294° |
| 2026-05-07 09:36 | 46.84671 | 20.68433 | 30065 ft | 416 kts | 295° |
| 2026-05-07 09:36 | 46.86086 | 20.64746 | 28806 ft | 415 kts | 295° |
| 2026-05-07 09:36 | 46.87500 | 20.61069 | 27617 ft | 413 kts | 295° |
| 2026-05-07 09:36 | 46.88904 | 20.57425 | 26481 ft | 410 kts | 295° |
| 2026-05-07 09:37 | 46.90296 | 20.53796 | 25381 ft | 408 kts | 295° |
| 2026-05-07 09:37 | 46.91684 | 20.50190 | 24327 ft | 405 kts | 296° |
| 2026-05-07 09:37 | 46.93064 | 20.46611 | 23305 ft | 402 kts | 296° |
| 2026-05-07 09:37 | 46.94427 | 20.43065 | 22169 ft | 398 kts | 296° |
| 2026-05-07 09:38 | 46.95777 | 20.39539 | 21089 ft | 394 kts | 296° |
| 2026-05-07 09:38 | 46.97106 | 20.36067 | 20069 ft | 389 kts | 296° |
| 2026-05-07 09:38 | 46.98422 | 20.32623 | 19082 ft | 384 kts | 296° |
| 2026-05-07 09:38 | 46.99698 | 20.29276 | 18133 ft | 379 kts | 296° |
| 2026-05-07 09:39 | 47.00976 | 20.25925 | 17073 ft | 374 kts | 296° |
| 2026-05-07 09:39 | 47.02249 | 20.22584 | 16060 ft | 368 kts | 296° |
| 2026-05-07 09:39 | 47.03467 | 20.19383 | 15129 ft | 362 kts | 296° |
| 2026-05-07 09:39 | 47.04683 | 20.16179 | 14193 ft | 357 kts | 296° |
| 2026-05-07 09:40 | 47.05883 | 20.13011 | 13224 ft | 353 kts | 296° |
| 2026-05-07 09:40 | 47.07044 | 20.09943 | 12701 ft | 335 kts | 296° |
| 2026-05-07 09:40 | 47.08143 | 20.07041 | 12306 ft | 315 kts | 296° |
| 2026-05-07 09:40 | 47.09183 | 20.04295 | 11881 ft | 299 kts | 296° |
| 2026-05-07 09:41 | 47.10173 | 20.01677 | 11256 ft | 291 kts | 296° |
| 2026-05-07 09:41 | 47.11151 | 19.99078 | 10538 ft | 288 kts | 295° |
| 2026-05-07 09:41 | 47.12115 | 19.96509 | 9823 ft | 286 kts | 295° |
| 2026-05-07 09:41 | 47.13069 | 19.93967 | 9076 ft | 282 kts | 295° |
| 2026-05-07 09:42 | 47.14011 | 19.91456 | 8345 ft | 279 kts | 296° |
| 2026-05-07 09:42 | 47.14946 | 19.88970 | 7648 ft | 275 kts | 296° |
| 2026-05-07 09:42 | 47.15850 | 19.86569 | 7191 ft | 265 kts | 296° |
| 2026-05-07 09:42 | 47.16730 | 19.84225 | 6837 ft | 259 kts | 296° |
| 2026-05-07 09:43 | 47.17597 | 19.81913 | 6511 ft | 258 kts | 296° |
| 2026-05-07 09:43 | 47.18462 | 19.79603 | 6159 ft | 258 kts | 296° |
| 2026-05-07 09:43 | 47.19323 | 19.77302 | 5795 ft | 257 kts | 296° |
| 2026-05-07 09:43 | 47.20169 | 19.75041 | 5439 ft | 255 kts | 295° |
| 2026-05-07 09:44 | 47.21022 | 19.72753 | 5119 ft | 253 kts | 295° |
| 2026-05-07 09:44 | 47.21868 | 19.70484 | 4784 ft | 252 kts | 295° |
| 2026-05-07 09:44 | 47.22709 | 19.68228 | 4428 ft | 251 kts | 295° |
| 2026-05-07 09:44 | 47.23540 | 19.65969 | 4087 ft | 249 kts | 295° |
| 2026-05-07 09:45 | 47.24344 | 19.63801 | 3956 ft | 232 kts | 296° |
| 2026-05-07 09:45 | 47.25096 | 19.61794 | 3946 ft | 216 kts | 295° |
| 2026-05-07 09:45 | 47.25789 | 19.59928 | 3950 ft | 204 kts | 295° |
| 2026-05-07 09:45 | 47.26473 | 19.58090 | 3965 ft | 205 kts | 295° |
| 2026-05-07 09:46 | 47.27149 | 19.56278 | 3972 ft | 204 kts | 295° |
| 2026-05-07 09:46 | 47.27841 | 19.54417 | 3993 ft | 204 kts | 294° |
| 2026-05-07 09:46 | 47.28520 | 19.52587 | 3992 ft | 204 kts | 294° |
| 2026-05-07 09:46 | 47.29216 | 19.50796 | 3988 ft | 205 kts | 300° |
| 2026-05-07 09:47 | 47.30097 | 19.49107 | 3928 ft | 205 kts | 306° |
| 2026-05-07 09:47 | 47.31035 | 19.47561 | 3732 ft | 205 kts | 308° |
| 2026-05-07 09:47 | 47.31996 | 19.46007 | 3555 ft | 204 kts | 309° |
| 2026-05-07 09:47 | 47.32952 | 19.44467 | 3273 ft | 202 kts | 309° |
| 2026-05-07 09:48 | 47.33894 | 19.42950 | 2958 ft | 199 kts | 309° |
| 2026-05-07 09:48 | 47.34817 | 19.41464 | 2676 ft | 193 kts | 309° |
| 2026-05-07 09:48 | 47.35715 | 19.40018 | 2407 ft | 189 kts | 308° |
| 2026-05-07 09:48 | 47.36578 | 19.38628 | 2146 ft | 178 kts | 308° |
| 2026-05-07 09:49 | 47.37382 | 19.37334 | 1955 ft | 161 kts | 307° |
| 2026-05-07 09:49 | 47.38088 | 19.36197 | 1738 ft | 137 kts | 306° |
| 2026-05-07 09:49 | 47.38504 | 19.35524 | 1594 ft | 133 kts | 306° |
| 2026-05-07 09:49 | 47.39129 | 19.34515 | 1414 ft | 133 kts | 307° |
| 2026-05-07 09:50 | 47.39743 | 19.33505 | 1277 ft | 133 kts | 306° |
| 2026-05-07 09:50 | 47.40365 | 19.32488 | 1074 ft | 133 kts | 306° |
| 2026-05-07 09:50 | 47.40987 | 19.31465 | 880 ft | 134 kts | 307° |
| 2026-05-07 09:50 | 47.41626 | 19.30459 | 663 ft | 135 kts | 307° |
| 2026-05-07 09:51 | 47.42261 | 19.29444 | 492 ft | 133 kts | 309° |
| 2026-05-07 09:51 | 47.42846 | 19.28496 | 458 ft | 108 kts | 313° |
| 2026-05-07 09:51 | 47.43210 | 19.27911 | 463 ft | 44 kts | 312° |
| 2026-05-07 09:51 | 47.43339 | 19.27602 | 467 ft | 35 kts | 288° |
| 2026-05-07 09:52 | 47.43394 | 19.27244 | 465 ft | 36 kts | 281° |
| 2026-05-07 09:52 | 47.43430 | 19.27020 | 464 ft | 19 kts | 288° |
| 2026-05-07 09:52 | 47.43513 | 19.26862 | 464 ft | 21 kts | 311° |
| 2026-05-07 09:52 | 47.43614 | 19.26699 | 464 ft | 23 kts | 313° |
| 2026-05-07 09:53 | 47.43719 | 19.26530 | 463 ft | 20 kts | 312° |
| 2026-05-07 09:53 | 47.43739 | 19.26406 | 462 ft | 14 kts | 234° |
| 2026-05-07 09:53 | 47.43661 | 19.26297 | 463 ft | 17 kts | 223° |
| 2026-05-07 09:53 | 47.43571 | 19.26177 | 461 ft | 13 kts | 222° |
| 2026-05-07 09:54 | 47.43516 | 19.26101 | 463 ft | 7 kts | 230° |
| 2026-05-07 09:54 | 47.43524 | 19.26048 | 463 ft | 1 kts | 311° |
| 2026-05-07 09:54 | 47.43533 | 19.26033 | 463 ft | 3 kts | 313° |
| 2026-05-07 09:54 | 47.43543 | 19.26017 | 463 ft | 0 kts | 312° |